createdAt,value
2023-05-14T00:01:56.120Z,10.96
2023-05-14T00:05:13.771Z,10.99
2023-05-14T00:07:44.209Z,10.99
2023-05-14T00:10:13.326Z,11.03
2023-05-14T00:12:42.319Z,10.94
2023-05-14T00:15:10.920Z,10.93
2023-05-14T00:17:40.021Z,10.91
2023-05-14T00:20:12.061Z,10.89
2023-05-14T00:22:40.517Z,10.95
2023-05-14T00:25:13.595Z,10.97
2023-05-14T00:27:43.621Z,10.91
2023-05-14T00:30:12.361Z,10.86
2023-05-14T00:32:41.388Z,10.83
2023-05-14T00:35:10.303Z,10.86
2023-05-14T00:37:38.376Z,10.79
2023-05-14T00:40:08.647Z,10.80
2023-05-14T00:42:39.356Z,10.65
2023-05-14T00:45:09.167Z,10.60
2023-05-14T00:47:39.308Z,10.52
2023-05-14T00:50:08.435Z,10.53
2023-05-14T00:52:37.444Z,10.41
2023-05-14T00:55:08.106Z,10.47
2023-05-14T00:57:38.294Z,10.40
2023-05-14T01:00:07.703Z,10.29
2023-05-14T01:02:35.761Z,10.24
2023-05-14T01:05:04.281Z,10.17
2023-05-14T01:07:40.562Z,10.06
2023-05-14T01:10:14.778Z,10.11
2023-05-14T01:12:48.901Z,10.05
2023-05-14T01:15:24.797Z,10.07
2023-05-14T01:17:55.813Z,10.02
2023-05-14T01:20:24.686Z,9.95
2023-05-14T01:22:54.259Z,9.94
2023-05-14T01:25:22.405Z,9.95
2023-05-14T01:27:59.334Z,9.84
2023-05-14T01:30:32.004Z,9.86
2023-05-14T01:33:03.532Z,9.80
2023-05-14T01:35:31.927Z,9.78
2023-05-14T01:38:04.519Z,9.90
2023-05-14T01:40:33.904Z,9.81
2023-05-14T01:43:03.032Z,9.82
2023-05-14T01:45:31.847Z,9.55
2023-05-14T01:47:59.730Z,9.65
2023-05-14T01:50:27.580Z,9.73
2023-05-14T01:52:56.880Z,9.58
2023-05-14T01:55:26.970Z,9.68
2023-05-14T01:57:55.483Z,9.38
2023-05-14T02:00:25.622Z,9.57
2023-05-14T02:02:54.361Z,9.47
2023-05-14T02:05:28.240Z,9.39
2023-05-14T02:07:56.089Z,9.32
2023-05-14T02:10:24.223Z,9.36
2023-05-14T02:12:53.664Z,9.36
2023-05-14T02:15:21.583Z,9.55
2023-05-14T02:17:49.683Z,9.67
2023-05-14T02:20:17.894Z,9.68
2023-05-14T02:22:48.842Z,9.71
2023-05-14T02:25:16.995Z,9.82
2023-05-14T02:27:45.202Z,9.87
2023-05-14T02:30:15.222Z,9.83
2023-05-14T02:32:43.329Z,9.78
2023-05-14T02:35:11.339Z,9.84
2023-05-14T02:37:41.793Z,9.78
2023-05-14T02:40:10.715Z,9.72
2023-05-14T02:42:39.880Z,9.74
2023-05-14T02:45:08.906Z,9.65
2023-05-14T02:47:39.196Z,9.61
2023-05-14T02:50:09.083Z,9.69
2023-05-14T02:52:37.033Z,9.60
2023-05-14T02:55:05.645Z,9.46
2023-05-14T02:57:33.605Z,9.43
2023-05-14T03:00:01.418Z,9.58
2023-05-14T03:02:29.834Z,9.40
2023-05-14T03:05:01.745Z,9.29
2023-05-14T03:07:29.716Z,9.39
2023-05-14T03:09:57.626Z,9.56
2023-05-14T03:12:25.621Z,9.45
2023-05-14T03:14:53.505Z,9.47
2023-05-14T03:17:21.482Z,9.36
2023-05-14T03:19:50.521Z,9.40
2023-05-14T03:22:21.915Z,9.41
2023-05-14T03:24:49.967Z,9.47
2023-05-14T03:27:17.740Z,9.41
2023-05-14T03:29:45.618Z,9.24
2023-05-14T03:32:13.531Z,9.23
2023-05-14T03:34:41.507Z,9.12
2023-05-14T03:37:09.402Z,9.08
2023-05-14T03:39:38.953Z,8.92
2023-05-14T03:42:07.124Z,8.98
2023-05-14T03:44:37.143Z,8.79
2023-05-14T03:47:05.481Z,8.70
2023-05-14T03:49:33.505Z,8.56
2023-05-14T03:52:02.394Z,8.76
2023-05-14T03:54:30.216Z,8.83
2023-05-14T03:56:59.440Z,9.06
2023-05-14T03:59:27.354Z,8.97
2023-05-14T04:01:55.634Z,9.19
2023-05-14T04:04:24.085Z,9.26
2023-05-14T04:06:51.988Z,9.17
2023-05-14T04:09:19.838Z,9.27
2023-05-14T04:11:49.081Z,9.23
2023-05-14T04:14:18.400Z,9.26
2023-05-14T04:16:46.735Z,9.25
2023-05-14T04:19:14.644Z,9.35
2023-05-14T04:21:42.744Z,9.40
2023-05-14T04:24:10.758Z,9.43
2023-05-14T04:26:38.930Z,9.54
2023-05-14T04:29:06.886Z,9.57
2023-05-14T04:31:38.407Z,9.66
2023-05-14T04:34:06.632Z,9.68
2023-05-14T04:36:34.605Z,9.81
2023-05-14T04:39:02.384Z,9.91
2023-05-14T04:41:30.315Z,9.91
2023-05-14T04:44:01.917Z,10.12
2023-05-14T04:46:31.874Z,10.02
2023-05-14T04:49:06.551Z,10.03
2023-05-14T04:51:42.570Z,10.02
2023-05-14T04:54:21.037Z,10.03
2023-05-14T04:56:51.490Z,9.92
2023-05-14T04:59:24.449Z,9.96
2023-05-14T05:01:52.766Z,10.00
2023-05-14T05:04:26.312Z,10.06
2023-05-14T05:06:57.384Z,10.14
2023-05-14T05:09:25.355Z,10.19
2023-05-14T05:11:54.194Z,10.25
2023-05-14T05:14:22.143Z,10.27
2023-05-14T05:16:50.045Z,10.38
2023-05-14T05:19:18.240Z,10.50
2023-05-14T05:21:53.325Z,10.50
2023-05-14T05:24:21.248Z,10.57
2023-05-14T05:26:50.285Z,10.58
2023-05-14T05:29:19.146Z,10.71
2023-05-14T05:31:47.151Z,10.83
2023-05-14T05:34:15.233Z,10.98
2023-05-14T05:36:43.225Z,11.14
2023-05-14T05:39:12.933Z,11.17
2023-05-14T05:41:40.873Z,11.25
2023-05-14T05:44:09.485Z,11.36
2023-05-14T05:46:39.708Z,11.73
2023-05-14T05:49:07.659Z,11.98
2023-05-14T05:51:35.885Z,11.98
2023-05-14T05:54:03.780Z,12.25
2023-05-14T05:56:32.991Z,12.56
2023-05-14T05:59:01.116Z,12.78
2023-05-14T06:01:30.483Z,13.04
2023-05-14T06:03:58.608Z,13.25
2023-05-14T06:06:26.601Z,13.41
2023-05-14T06:08:54.493Z,13.54
2023-05-14T06:11:24.822Z,13.85
2023-05-14T06:13:54.101Z,14.45
2023-05-14T06:16:22.239Z,14.44
2023-05-14T06:18:50.231Z,15.11
2023-05-14T06:21:18.071Z,15.42
2023-05-14T06:23:57.625Z,15.29
2023-05-14T06:26:25.960Z,16.18
2023-05-14T06:28:57.751Z,16.23
2023-05-14T06:31:26.445Z,16.16
2023-05-14T06:33:54.496Z,16.27
2023-05-14T06:36:22.527Z,15.62
2023-05-14T06:38:50.453Z,15.39
2023-05-14T06:41:18.501Z,15.46
2023-05-14T06:43:47.693Z,15.72
2023-05-14T06:46:16.936Z,16.01
2023-05-14T06:48:46.024Z,16.15
2023-05-14T06:51:14.252Z,15.81
2023-05-14T06:53:42.345Z,16.26
2023-05-14T06:56:10.334Z,16.61
2023-05-14T06:58:40.748Z,16.77
2023-05-14T07:01:10.830Z,17.24
2023-05-14T07:03:40.493Z,16.73
2023-05-14T07:06:08.764Z,16.88
2023-05-14T07:08:40.368Z,17.26
2023-05-14T07:11:08.213Z,17.35
2023-05-14T07:13:37.162Z,17.40
2023-05-14T07:16:05.585Z,17.05
2023-05-14T07:18:33.644Z,17.03
2023-05-14T07:21:12.003Z,17.53
2023-05-14T07:23:42.247Z,17.66
2023-05-14T07:26:10.191Z,17.95
2023-05-14T07:28:38.012Z,18.25
2023-05-14T07:31:09.077Z,19.18
2023-05-14T07:33:37.506Z,19.14
2023-05-14T07:36:08.147Z,19.54
2023-05-14T07:38:36.047Z,19.07
2023-05-14T07:41:04.194Z,19.62
2023-05-14T07:43:34.200Z,19.23
2023-05-14T07:46:03.482Z,20.03
2023-05-14T07:48:31.339Z,20.11
2023-05-14T07:50:59.464Z,19.31
2023-05-14T07:53:28.694Z,19.05
2023-05-14T07:55:56.642Z,18.56
2023-05-14T07:58:25.118Z,18.97
2023-05-14T08:00:56.625Z,18.63
2023-05-14T08:03:24.804Z,19.80
2023-05-14T08:05:52.890Z,20.29
2023-05-14T08:08:21.068Z,19.77
2023-05-14T08:10:50.307Z,20.10
2023-05-14T08:13:19.372Z,19.46
2023-05-14T08:15:49.664Z,20.44
2023-05-14T08:18:19.572Z,20.67
2023-05-14T08:20:52.811Z,19.78
2023-05-14T08:23:26.767Z,19.64
2023-05-14T08:25:56.965Z,20.20
2023-05-14T08:28:25.371Z,20.27
2023-05-14T08:30:54.900Z,20.70
2023-05-14T08:33:22.859Z,21.06
2023-05-14T08:35:54.698Z,20.83
2023-05-14T08:38:26.047Z,20.70
2023-05-14T08:40:59.602Z,20.15
2023-05-14T08:43:31.728Z,19.95
2023-05-14T08:46:04.525Z,19.98
2023-05-14T08:48:34.655Z,20.07
2023-05-14T08:51:03.370Z,19.72
2023-05-14T08:53:32.188Z,20.51
2023-05-14T08:56:05.276Z,20.50
2023-05-14T08:58:33.312Z,20.85
2023-05-14T09:01:04.679Z,20.70
2023-05-14T09:03:47.980Z,20.66
2023-05-14T09:06:21.544Z,20.90
2023-05-14T09:08:57.272Z,20.58
2023-05-14T09:11:27.909Z,20.45
2023-05-14T09:14:00.101Z,20.38
2023-05-14T09:16:31.334Z,20.36
2023-05-14T09:18:59.515Z,21.17
2023-05-14T09:21:31.587Z,20.75
2023-05-14T09:24:20.767Z,21.88
2023-05-14T09:26:59.196Z,21.31
2023-05-14T09:29:31.026Z,21.84
2023-05-14T09:32:02.510Z,22.52
2023-05-14T09:34:32.214Z,22.61
2023-05-14T09:37:02.002Z,22.20
2023-05-14T09:39:33.037Z,22.69
2023-05-14T09:42:02.403Z,21.93
2023-05-14T09:44:30.654Z,22.26
2023-05-14T09:46:58.960Z,22.65
2023-05-14T09:49:29.273Z,22.33
2023-05-14T09:51:57.996Z,22.85
2023-05-14T09:54:27.680Z,22.89
2023-05-14T09:57:11.334Z,22.89
2023-05-14T09:59:49.770Z,23.67
2023-05-14T10:02:28.037Z,23.26
2023-05-14T10:05:01.751Z,24.24
2023-05-14T10:08:04.960Z,23.76
2023-05-14T10:10:39.709Z,24.24
2023-05-14T10:13:38.778Z,24.57
2023-05-14T10:16:13.926Z,24.60
2023-05-14T10:18:49.714Z,24.46
2023-05-14T10:21:21.652Z,25.48
2023-05-14T10:23:51.682Z,25.99
2023-05-14T10:26:29.734Z,25.98
2023-05-14T10:29:00.762Z,25.50
2023-05-14T10:31:47.937Z,25.25
2023-05-14T10:34:38.772Z,25.12
2023-05-14T10:37:27.310Z,23.99
2023-05-14T10:39:59.688Z,24.55
2023-05-14T10:42:33.288Z,23.60
2023-05-14T10:45:07.681Z,23.76
2023-05-14T10:47:39.496Z,25.84
2023-05-14T10:50:13.401Z,25.41
2023-05-14T10:52:43.840Z,24.26
2023-05-14T10:55:17.732Z,24.64
2023-05-14T10:57:47.657Z,24.68
2023-05-14T11:00:18.322Z,25.14
2023-05-14T11:02:47.623Z,26.06
2023-05-14T11:05:18.167Z,26.60
2023-05-14T11:07:47.514Z,26.17
2023-05-14T11:10:19.166Z,25.88
2023-05-14T11:12:50.990Z,26.86
2023-05-14T11:15:28.485Z,26.65
2023-05-14T11:17:56.959Z,25.46
2023-05-14T11:20:26.792Z,26.73
2023-05-14T11:22:57.591Z,25.78
2023-05-14T11:25:25.934Z,26.69
2023-05-14T11:27:58.497Z,28.17
2023-05-14T11:30:29.412Z,28.21
2023-05-14T11:32:59.355Z,26.46
2023-05-14T11:35:32.571Z,26.86
2023-05-14T11:38:00.562Z,26.28
2023-05-14T11:40:30.680Z,26.70
2023-05-14T11:42:59.985Z,27.04
2023-05-14T11:45:33.057Z,27.48
2023-05-14T11:48:01.121Z,27.56
2023-05-14T11:50:29.225Z,26.79
2023-05-14T11:53:00.357Z,25.89
2023-05-14T11:55:29.104Z,26.92
2023-05-14T11:57:58.375Z,24.63
2023-05-14T12:00:34.261Z,25.40
2023-05-14T12:03:03.265Z,24.26
2023-05-14T12:05:34.376Z,24.67
2023-05-14T12:08:04.461Z,25.81
2023-05-14T12:10:43.070Z,26.72
2023-05-14T12:13:12.014Z,26.17
2023-05-14T12:15:41.580Z,26.81
2023-05-14T12:18:22.982Z,26.91
2023-05-14T12:20:52.594Z,26.51
2023-05-14T12:23:26.866Z,27.76
2023-05-14T12:25:55.682Z,27.41
2023-05-14T12:28:24.721Z,28.46
2023-05-14T12:30:59.154Z,27.50
2023-05-14T12:33:27.982Z,27.18
2023-05-14T12:35:58.911Z,27.27
2023-05-14T12:38:29.092Z,27.53
2023-05-14T12:40:57.014Z,27.86
2023-05-14T12:43:24.998Z,26.51
2023-05-14T12:45:52.982Z,26.37
2023-05-14T12:48:22.249Z,27.15
2023-05-14T12:50:50.400Z,25.90
2023-05-14T12:53:18.806Z,26.48
2023-05-14T12:55:46.980Z,26.00
2023-05-14T12:58:15.192Z,25.73
2023-05-14T13:00:43.095Z,25.95
2023-05-14T13:03:10.974Z,26.07
2023-05-14T13:05:41.690Z,25.93
2023-05-14T13:08:10.685Z,26.65
2023-05-14T13:10:39.058Z,26.31
2023-05-14T13:13:06.922Z,26.75
2023-05-14T13:15:34.911Z,25.70
2023-05-14T13:18:03.067Z,25.60
2023-05-14T13:20:31.334Z,26.32
2023-05-14T13:23:01.818Z,27.08
2023-05-14T13:25:29.830Z,25.82
2023-05-14T13:27:57.807Z,25.98
2023-05-14T13:30:25.891Z,26.58
2023-05-14T13:32:53.753Z,26.85
2023-05-14T13:35:21.814Z,27.46
2023-05-14T13:37:52.426Z,27.35
2023-05-14T13:40:21.877Z,27.05
2023-05-14T13:42:49.961Z,27.12
2023-05-14T13:45:18.102Z,26.47
2023-05-14T13:47:46.358Z,26.29
2023-05-14T13:50:14.811Z,26.86
2023-05-14T13:52:42.797Z,26.64
2023-05-14T13:55:11.004Z,27.64
2023-05-14T13:57:41.829Z,27.93
2023-05-14T14:00:11.135Z,27.69
2023-05-14T14:02:39.274Z,26.87
2023-05-14T14:05:09.159Z,26.59
2023-05-14T14:07:37.927Z,27.13
2023-05-14T14:10:06.497Z,26.54
2023-05-14T14:12:35.501Z,26.28
2023-05-14T14:15:07.922Z,26.02
2023-05-14T14:17:36.858Z,25.93
2023-05-14T14:20:08.628Z,25.53
2023-05-14T14:22:37.256Z,25.90
2023-05-14T14:25:08.355Z,26.47
2023-05-14T14:27:38.576Z,25.67
2023-05-14T14:30:15.739Z,25.38
2023-05-14T14:32:45.410Z,25.17
2023-05-14T14:35:14.826Z,25.34
2023-05-14T14:37:45.605Z,26.35
2023-05-14T14:40:13.759Z,26.15
2023-05-14T14:42:43.118Z,25.47
2023-05-14T14:45:13.356Z,25.50
2023-05-14T14:47:44.957Z,26.16
2023-05-14T14:50:13.829Z,26.40
2023-05-14T14:52:45.615Z,26.09
2023-05-14T14:55:14.037Z,26.23
2023-05-14T14:57:42.021Z,26.42
2023-05-14T15:00:12.880Z,26.39
2023-05-14T15:02:43.049Z,26.33
2023-05-14T15:05:14.880Z,26.33
2023-05-14T15:07:46.577Z,26.50
2023-05-14T15:10:14.451Z,26.41
2023-05-14T15:12:51.142Z,26.61
2023-05-14T15:15:53.683Z,25.61
2023-05-14T15:18:21.722Z,25.78
2023-05-14T15:20:49.636Z,26.13
2023-05-14T15:23:48.133Z,25.18
2023-05-14T15:26:17.205Z,25.91
2023-05-14T15:28:45.077Z,25.45
2023-05-14T15:31:14.361Z,25.23
2023-05-14T15:33:42.582Z,25.42
2023-05-14T15:36:10.629Z,25.81
2023-05-14T15:38:40.546Z,25.76
2023-05-14T15:41:11.743Z,26.14
2023-05-14T15:43:40.031Z,25.93
2023-05-14T15:46:07.897Z,26.60
2023-05-14T15:48:40.035Z,26.35
2023-05-14T15:51:09.166Z,26.50
2023-05-14T15:53:37.104Z,25.44
2023-05-14T15:56:08.416Z,24.84
2023-05-14T15:58:36.498Z,25.54
2023-05-14T16:01:04.714Z,25.15
2023-05-14T16:03:32.697Z,25.43
2023-05-14T16:06:05.997Z,24.56
2023-05-14T16:08:34.322Z,24.35
2023-05-14T16:11:02.706Z,24.43
2023-05-14T16:13:32.813Z,24.41
2023-05-14T16:16:01.892Z,23.73
2023-05-14T16:18:30.318Z,23.45
2023-05-14T16:20:58.360Z,23.52
2023-05-14T16:23:28.518Z,23.88
2023-05-14T16:25:56.579Z,23.86
2023-05-14T16:28:24.697Z,23.79
2023-05-14T16:30:55.447Z,23.40
2023-05-14T16:33:23.534Z,22.22
2023-05-14T16:35:51.703Z,22.21
2023-05-14T16:38:20.266Z,22.55
2023-05-14T16:40:49.598Z,21.54
2023-05-14T16:43:17.531Z,21.76
2023-05-14T16:45:45.478Z,21.08
2023-05-14T16:48:13.684Z,21.35
2023-05-14T16:50:41.866Z,21.64
2023-05-14T16:53:09.885Z,21.26
2023-05-14T16:55:37.914Z,20.75
2023-05-14T16:58:08.690Z,20.48
2023-05-14T17:00:44.119Z,19.87
2023-05-14T17:03:12.268Z,19.97
2023-05-14T17:05:40.339Z,19.56
2023-05-14T17:08:08.326Z,18.89
2023-05-14T17:10:37.863Z,18.86
2023-05-14T17:13:07.380Z,18.33
2023-05-14T17:15:46.092Z,18.76
2023-05-14T17:18:16.415Z,18.36
2023-05-14T17:20:46.055Z,18.08
2023-05-14T17:23:14.853Z,18.21
2023-05-14T17:25:43.232Z,18.59
2023-05-14T17:28:13.386Z,17.94
2023-05-14T17:30:41.969Z,17.65
2023-05-14T17:33:12.091Z,17.07
2023-05-14T17:35:40.206Z,16.73
2023-05-14T17:38:08.526Z,16.81
2023-05-14T17:40:40.304Z,16.61
2023-05-14T17:43:09.645Z,16.51
2023-05-14T17:45:53.096Z,16.40
2023-05-14T17:48:25.046Z,16.10
2023-05-14T17:50:53.119Z,15.67
2023-05-14T17:53:21.524Z,15.60
2023-05-14T17:55:53.878Z,15.09
2023-05-14T17:58:37.605Z,15.19
2023-05-14T18:01:08.493Z,14.81
2023-05-14T18:03:36.673Z,14.78
2023-05-14T18:06:07.307Z,15.03
2023-05-14T18:08:37.294Z,14.85
2023-05-14T18:11:05.622Z,14.75
2023-05-14T18:13:33.543Z,14.72
2023-05-14T18:16:01.831Z,14.52
2023-05-14T18:18:31.984Z,14.48
2023-05-14T18:21:01.812Z,14.25
2023-05-14T18:23:32.208Z,14.38
2023-05-14T18:26:01.625Z,14.07
2023-05-14T18:28:29.727Z,13.89
2023-05-14T18:31:08.908Z,13.90
2023-05-14T18:33:44.442Z,13.61
2023-05-14T18:36:15.276Z,13.47
2023-05-14T18:38:43.473Z,13.31
2023-05-14T18:41:11.596Z,13.28
2023-05-14T18:43:39.705Z,13.09
2023-05-14T18:46:07.875Z,13.10
2023-05-14T18:48:35.932Z,12.96
2023-05-14T18:51:05.660Z,12.78
2023-05-14T18:53:33.815Z,12.60
2023-05-14T18:56:01.965Z,12.55
2023-05-14T18:58:29.941Z,12.57
2023-05-14T19:00:59.278Z,12.35
2023-05-14T19:03:27.681Z,12.25
2023-05-14T19:05:56.350Z,12.17
2023-05-14T19:08:25.865Z,12.13
2023-05-14T19:10:53.964Z,12.09
2023-05-14T19:13:22.283Z,12.02
2023-05-14T19:15:51.701Z,11.98
2023-05-14T19:18:20.281Z,11.71
2023-05-14T19:20:48.751Z,11.73
2023-05-14T19:23:17.031Z,11.72
2023-05-14T19:25:47.375Z,11.85
2023-05-14T19:28:16.610Z,11.76
2023-05-14T19:30:45.834Z,11.61
2023-05-14T19:33:13.828Z,11.49
2023-05-14T19:35:44.042Z,11.48
2023-05-14T19:38:15.393Z,11.35
2023-05-14T19:40:44.420Z,11.35
2023-05-14T19:43:16.717Z,11.31
2023-05-14T19:45:46.482Z,11.29
2023-05-14T19:48:16.115Z,11.26
2023-05-14T19:50:46.645Z,11.26
2023-05-14T19:53:14.857Z,11.21
2023-05-14T19:55:43.042Z,11.24
2023-05-14T19:58:11.673Z,11.23
2023-05-14T20:00:41.136Z,11.20
2023-05-14T20:03:12.740Z,10.99
2023-05-14T20:05:41.891Z,11.14
2023-05-14T20:08:10.010Z,10.99
2023-05-14T20:10:38.073Z,10.95
2023-05-14T20:13:12.051Z,10.91
2023-05-14T20:15:50.522Z,10.88
2023-05-14T20:18:39.787Z,10.90
2023-05-14T20:25:41.594Z,10.95
2023-05-14T20:28:40.526Z,10.86
2023-05-14T20:31:24.185Z,10.80
2023-05-14T20:34:19.249Z,10.90
2023-05-14T20:36:48.562Z,10.86
2023-05-14T20:39:19.393Z,10.62
2023-05-14T20:41:49.087Z,10.68
2023-05-14T20:44:20.553Z,10.68
2023-05-14T20:46:51.249Z,10.59
2023-05-14T20:49:19.473Z,10.61
2023-05-14T20:51:47.481Z,10.62
2023-05-14T20:54:15.813Z,10.57
2023-05-14T20:56:45.362Z,10.49
2023-05-14T20:59:13.792Z,10.54
2023-05-14T21:01:43.881Z,10.53
2023-05-14T21:04:13.746Z,10.47
2023-05-14T21:06:42.361Z,10.60
2023-05-14T21:09:10.869Z,10.35
2023-05-14T21:11:39.901Z,10.34
2023-05-14T21:14:08.462Z,10.28
2023-05-14T21:16:36.645Z,10.35
2023-05-14T21:19:07.441Z,10.32
2023-05-14T21:21:36.996Z,10.25
2023-05-14T21:24:05.637Z,10.35
2023-05-14T21:26:34.225Z,10.30
2023-05-14T21:29:05.099Z,10.39
2023-05-14T21:31:34.738Z,10.47
2023-05-14T21:34:03.008Z,10.48
2023-05-14T21:36:31.236Z,10.55
2023-05-14T21:39:18.862Z,10.48
2023-05-14T21:41:46.983Z,10.68
2023-05-14T21:44:17.817Z,10.70
2023-05-14T21:46:50.054Z,10.57
2023-05-14T21:49:20.334Z,10.69
2023-05-14T21:51:53.263Z,10.80
2023-05-14T21:54:27.333Z,10.60
2023-05-14T21:56:58.359Z,10.65
2023-05-14T21:59:26.791Z,10.66
2023-05-14T22:02:07.051Z,10.71
2023-05-14T22:04:41.454Z,10.72
2023-05-14T22:07:12.831Z,10.56
2023-05-14T22:09:42.305Z,10.75
2023-05-14T22:12:11.407Z,10.66
2023-05-14T22:14:45.679Z,10.69
2023-05-14T22:17:13.857Z,10.77
2023-05-14T22:19:41.774Z,10.66
2023-05-14T22:22:10.087Z,10.71
2023-05-14T22:24:38.864Z,10.54
2023-05-14T22:27:09.399Z,10.73
2023-05-14T22:29:38.550Z,10.73
2023-05-14T22:32:10.858Z,10.77
2023-05-14T22:34:40.641Z,10.65
2023-05-14T22:37:10.026Z,10.66
2023-05-14T22:39:39.666Z,10.44
2023-05-14T22:42:09.377Z,10.64
2023-05-14T22:44:37.789Z,10.65
2023-05-14T22:47:06.642Z,10.66
2023-05-14T22:49:34.899Z,10.53
2023-05-14T22:52:03.900Z,10.60
2023-05-14T22:54:32.061Z,10.45
2023-05-14T22:57:00.012Z,10.49
2023-05-14T22:59:29.587Z,10.53
2023-05-14T23:01:57.703Z,10.41
2023-05-14T23:04:26.249Z,10.38
2023-05-14T23:06:54.403Z,10.43
2023-05-14T23:09:22.427Z,10.36
2023-05-14T23:11:50.604Z,10.35
2023-05-14T23:14:22.373Z,10.41
2023-05-14T23:16:51.790Z,10.37
2023-05-14T23:19:20.100Z,10.33
2023-05-14T23:21:48.498Z,10.40
2023-05-14T23:24:16.590Z,10.47
2023-05-14T23:26:44.838Z,10.46
2023-05-14T23:29:13.011Z,10.40
2023-05-14T23:31:41.361Z,10.41
2023-05-14T23:34:11.289Z,10.38
2023-05-14T23:36:40.509Z,10.35
2023-05-14T23:39:08.820Z,10.27
2023-05-14T23:41:36.773Z,10.31
2023-05-14T23:44:05.057Z,10.37
2023-05-14T23:46:33.308Z,10.38
2023-05-14T23:49:03.461Z,10.41
2023-05-14T23:51:35.739Z,10.14
2023-05-14T23:54:03.634Z,10.21
2023-05-14T23:56:32.034Z,10.25
2023-05-14T23:59:00.171Z,10.27
